Time;durP1;ratioP1;P1;durP2;ratioP2;P2;SDS_P1;SDS_P2;PMS_P1;PMS_P2;Temp;Humidity;BMP_temperature;BMP_pressure;BME280_temperature;BME280_humidity;BME280_pressure;Samples;Min_cycle;Max_cycle;Signal;HPM_P1;HPM_P2
2023/08/09 00:00:36;;;;;;;13.95;4.68;;;;;;;;;;20922297;28;20130;-62
2023/08/09 00:10:37;;;;;;;10.27;4.60;;;;;;;;;;20921568;28;20048;-61
2023/08/09 00:20:38;;;;;;;16.58;6.80;;;;;;;;;;20919871;28;20100;-61
2023/08/09 00:30:39;;;;;;;10.80;4.88;;;;;;;;;;20919144;28;20079;-62
2023/08/09 00:40:40;;;;;;;8.27;3.67;;;;;;;;;;20918092;28;20037;-63
2023/08/09 00:50:42;;;;;;;9.95;4.78;;;;;;;;;;20918911;28;20037;-62
2023/08/09 01:00:43;;;;;;;11.38;4.18;;;;;;;;;;20916933;28;20051;-61
2023/08/09 01:10:50;;;;;;;18.27;7.32;;;;;;;;;;20917111;28;20069;-62
2023/08/09 01:20:51;;;;;;;12.48;4.25;;;;;;;;;;20916542;28;20512;-63
2023/08/09 01:30:52;;;;;;;13.85;5.43;;;;;;;;;;20915991;28;20379;-62
2023/08/09 01:40:54;;;;;;;11.55;4.28;;;;;;;;;;20915618;28;20076;-63
2023/08/09 01:50:55;;;;;;;12.43;3.90;;;;;;;;;;20914222;28;20110;-62
2023/08/09 02:00:56;;;;;;;13.63;5.20;;;;;;;;;;20914200;28;20090;-62
2023/08/09 02:10:57;;;;;;;10.50;4.25;;;;;;;;;;20913506;28;20045;-62
2023/08/09 02:20:59;;;;;;;14.57;4.70;;;;;;;;;;20913581;28;20060;-62
2023/08/09 02:31:00;;;;;;;11.55;4.45;;;;;;;;;;20913123;28;20119;-62
2023/08/09 02:41:01;;;;;;;13.60;4.95;;;;;;;;;;20911499;28;20037;-62
2023/08/09 02:51:03;;;;;;;14.52;4.53;;;;;;;;;;20912451;28;20422;-61
2023/08/09 03:01:05;;;;;;;10.73;4.07;;;;;;;;;;20915432;28;20044;-62
2023/08/09 03:11:06;;;;;;;10.82;3.35;;;;;;;;;;20926456;28;20415;-61
2023/08/09 03:21:07;;;;;;;14.45;4.25;;;;;;;;;;20926000;28;20075;-61
2023/08/09 03:31:09;;;;;;;7.28;2.50;;;;;;;;;;20925094;28;20394;-62
2023/08/09 03:41:10;;;;;;;9.65;2.55;;;;;;;;;;20923330;28;20041;-62
2023/08/09 03:51:11;;;;;;;9.30;2.90;;;;;;;;;;20924988;28;20128;-62
2023/08/09 04:01:12;;;;;;;9.60;2.60;;;;;;;;;;20922658;28;20049;-62
2023/08/09 04:11:13;;;;;;;5.15;2.55;;;;;;;;;;20920638;28;20081;-61
2023/08/09 04:21:15;;;;;;;10.95;4.03;;;;;;;;;;20919975;28;20041;-62
2023/08/09 04:31:16;;;;;;;12.90;3.72;;;;;;;;;;20919385;28;20056;-62
2023/08/09 04:41:17;;;;;;;10.50;3.83;;;;;;;;;;20919708;28;20037;-62
2023/08/09 04:51:18;;;;;;;11.65;3.92;;;;;;;;;;20919033;28;20118;-60
2023/08/09 05:01:19;;;;;;;10.07;3.47;;;;;;;;;;20918113;28;20045;-62
2023/08/09 05:11:21;;;;;;;11.98;3.80;;;;;;;;;;20917007;28;20041;-61
2023/08/09 05:21:22;;;;;;;13.45;3.70;;;;;;;;;;20916547;28;20056;-61
2023/08/09 05:31:23;;;;;;;13.73;3.95;;;;;;;;;;20914751;28;20437;-62
2023/08/09 05:41:24;;;;;;;11.25;3.65;;;;;;;;;;20915017;28;20041;-62
2023/08/09 05:51:25;;;;;;;17.50;4.07;;;;;;;;;;20914729;28;20053;-62
2023/08/09 06:01:28;;;;;;;11.98;3.90;;;;;;;;;;20914020;28;20045;-62
2023/08/09 06:11:29;;;;;;;13.15;4.00;;;;;;;;;;20912095;28;20103;-62
2023/08/09 06:21:30;;;;;;;13.40;4.40;;;;;;;;;;20913327;28;20483;-62
2023/08/09 06:31:31;;;;;;;16.17;4.22;;;;;;;;;;20913209;28;20411;-63
2023/08/09 06:41:32;;;;;;;15.00;3.67;;;;;;;;;;20924899;28;20049;-63
2023/08/09 06:51:34;;;;;;;16.10;3.67;;;;;;;;;;20928046;28;20491;-63
2023/08/09 07:01:35;;;;;;;15.70;3.97;;;;;;;;;;20926048;28;20049;-62
2023/08/09 07:11:36;;;;;;;11.13;3.40;;;;;;;;;;20927681;28;20057;-63
2023/08/09 07:21:37;;;;;;;17.10;3.47;;;;;;;;;;20924252;28;20041;-63
2023/08/09 07:31:38;;;;;;;9.02;2.97;;;;;;;;;;20924920;28;20187;-62
2023/08/09 07:41:39;;;;;;;9.13;2.38;;;;;;;;;;20924162;28;20397;-63
2023/08/09 07:51:41;;;;;;;10.32;2.78;;;;;;;;;;20922159;28;20055;-63
2023/08/09 08:01:42;;;;;;;12.18;2.80;;;;;;;;;;20922371;28;20406;-63
2023/08/09 08:11:43;;;;;;;10.88;2.80;;;;;;;;;;20922218;28;20112;-62
2023/08/09 08:21:44;;;;;;;8.70;3.28;;;;;;;;;;20919543;28;20118;-63
2023/08/09 08:31:46;;;;;;;10.57;3.05;;;;;;;;;;20920628;28;20056;-61
2023/08/09 08:41:49;;;;;;;10.48;2.60;;;;;;;;;;20919681;28;20482;-62
2023/08/09 08:51:52;;;;;;;8.75;2.45;;;;;;;;;;20917427;28;20044;-62
2023/08/09 09:01:53;;;;;;;10.27;2.90;;;;;;;;;;20917413;28;20116;-63
2023/08/09 09:11:54;;;;;;;12.00;3.05;;;;;;;;;;20915939;28;20053;-62
2023/08/09 09:21:56;;;;;;;13.10;2.95;;;;;;;;;;20916456;28;20057;-63
2023/08/09 09:31:59;;;;;;;13.32;3.10;;;;;;;;;;20915197;28;20037;-62
2023/08/09 09:42:00;;;;;;;11.65;2.83;;;;;;;;;;20914359;28;20049;-63
2023/08/09 09:52:03;;;;;;;17.20;3.67;;;;;;;;;;20913898;28;20045;-63
2023/08/09 10:02:05;;;;;;;17.95;3.47;;;;;;;;;;20914056;28;20049;-63
2023/08/09 10:12:07;;;;;;;13.90;2.72;;;;;;;;;;20922602;28;20479;-63
2023/08/09 10:22:11;;;;;;;11.45;3.47;;;;;;;;;;20939401;28;20059;-63
2023/08/09 10:32:12;;;;;;;15.88;3.40;;;;;;;;;;20940005;28;20080;-65
2023/08/09 10:42:14;;;;;;;17.20;3.03;;;;;;;;;;20939426;28;20037;-64
2023/08/09 10:52:16;;;;;;;20.65;4.15;;;;;;;;;;20937868;28;20053;-63
2023/08/09 11:02:17;;;;;;;19.60;3.30;;;;;;;;;;20939119;28;20048;-63
2023/08/09 11:12:18;;;;;;;19.52;3.88;;;;;;;;;;20937949;28;20057;-63
2023/08/09 11:22:20;;;;;;;13.95;3.40;;;;;;;;;;20934412;28;20464;-62
2023/08/09 11:32:27;;;;;;;13.60;4.65;;;;;;;;;;20923010;28;20045;-63
2023/08/09 11:42:28;;;;;;;12.52;3.55;;;;;;;;;;20923923;28;20494;-63
2023/08/09 11:52:30;;;;;;;14.43;3.88;;;;;;;;;;20922839;28;20528;-63
2023/08/09 12:02:31;;;;;;;8.80;3.03;;;;;;;;;;20922588;28;20073;-63
2023/08/09 12:12:36;;;;;;;10.40;4.18;;;;;;;;;;20920972;28;20084;-64
2023/08/09 12:22:38;;;;;;;14.93;3.80;;;;;;;;;;20920781;28;20442;-63
2023/08/09 12:32:39;;;;;;;11.43;2.80;;;;;;;;;;20918712;28;20041;-63
2023/08/09 12:42:41;;;;;;;15.77;3.40;;;;;;;;;;20919366;28;20497;-65
2023/08/09 12:52:42;;;;;;;10.25;3.10;;;;;;;;;;20919008;28;20126;-67
2023/08/09 13:02:43;;;;;;;21.13;4.05;;;;;;;;;;20917751;28;20045;-67
2023/08/09 13:12:44;;;;;;;17.60;3.72;;;;;;;;;;20916215;28;20056;-67
2023/08/09 13:22:46;;;;;;;15.90;3.90;;;;;;;;;;20916352;28;20486;-68
2023/08/09 13:32:47;;;;;;;11.20;2.97;;;;;;;;;;20915667;28;20064;-67
2023/08/09 13:42:49;;;;;;;13.10;3.10;;;;;;;;;;20915317;28;20041;-67
2023/08/09 13:52:50;;;;;;;14.80;3.97;;;;;;;;;;20912516;28;20041;-68
2023/08/09 14:02:51;;;;;;;22.58;4.20;;;;;;;;;;20913826;28;20080;-68
2023/08/09 14:12:52;;;;;;;17.77;4.05;;;;;;;;;;20912823;28;20057;-67
2023/08/09 14:22:53;;;;;;;12.57;3.83;;;;;;;;;;20913401;28;20474;-68
2023/08/09 14:32:54;;;;;;;16.65;4.47;;;;;;;;;;20913331;28;20051;-68
2023/08/09 14:42:56;;;;;;;20.73;3.78;;;;;;;;;;20911599;28;20048;-68
2023/08/09 14:52:57;;;;;;;15.18;4.35;;;;;;;;;;20910908;28;20124;-68
2023/08/09 15:02:59;;;;;;;19.23;4.18;;;;;;;;;;20924397;28;20041;-68
2023/08/09 15:13:02;;;;;;;25.20;4.68;;;;;;;;;;20925848;28;20057;-68
2023/08/09 15:23:03;;;;;;;24.85;5.18;;;;;;;;;;20924562;28;20044;-65
2023/08/09 15:33:05;;;;;;;17.77;4.78;;;;;;;;;;20925475;28;20086;-65
2023/08/09 15:43:06;;;;;;;22.45;4.80;;;;;;;;;;20923082;28;20049;-64
2023/08/09 15:53:07;;;;;;;29.20;6.13;;;;;;;;;;20923859;28;20041;-64
2023/08/09 16:03:08;;;;;;;32.17;6.25;;;;;;;;;;20922490;28;20069;-64
2023/08/09 16:13:09;;;;;;;40.60;7.38;;;;;;;;;;20920451;28;20506;-63
2023/08/09 16:23:10;;;;;;;30.48;7.05;;;;;;;;;;20921513;28;20076;-64
2023/08/09 16:33:11;;;;;;;40.50;7.30;;;;;;;;;;20920789;28;20120;-64
2023/08/09 16:43:12;;;;;;;34.80;6.72;;;;;;;;;;20920126;28;20045;-64
2023/08/09 16:53:14;;;;;;;27.33;6.47;;;;;;;;;;20918920;28;20041;-67
2023/08/09 17:03:15;;;;;;;27.30;5.38;;;;;;;;;;20918548;28;20124;-66
2023/08/09 17:13:16;;;;;;;27.13;6.60;;;;;;;;;;20916972;28;20057;-66
2023/08/09 17:23:20;;;;;;;22.70;5.45;;;;;;;;;;20915454;28;20045;-65
2023/08/09 17:33:21;;;;;;;25.95;6.22;;;;;;;;;;20916125;28;20053;-66
2023/08/09 17:43:22;;;;;;;26.48;7.25;;;;;;;;;;20915301;28;20047;-64
2023/08/09 17:53:23;;;;;;;34.90;6.55;;;;;;;;;;20913360;28;20044;-64
2023/08/09 18:03:24;;;;;;;30.60;6.07;;;;;;;;;;20912939;28;20037;-66
2023/08/09 18:13:25;;;;;;;23.38;6.65;;;;;;;;;;20912996;28;20060;-64
2023/08/09 18:23:26;;;;;;;29.65;6.03;;;;;;;;;;20913463;28;20045;-65
2023/08/09 18:33:28;;;;;;;25.30;5.78;;;;;;;;;;20919351;28;20073;-65
2023/08/09 18:43:29;;;;;;;29.40;7.45;;;;;;;;;;20929194;28;20396;-64
2023/08/09 18:53:30;;;;;;;31.65;7.03;;;;;;;;;;20928261;28;20545;-64
2023/08/09 19:03:32;;;;;;;34.35;6.97;;;;;;;;;;20927419;28;20103;-64
2023/08/09 19:13:33;;;;;;;29.15;8.00;;;;;;;;;;20926513;28;20508;-64
2023/08/09 19:23:38;;;;;;;32.47;6.20;;;;;;;;;;20925894;28;20045;-63
2023/08/09 19:33:39;;;;;;;32.75;7.70;;;;;;;;;;20925363;28;20049;-63
2023/08/09 19:43:40;;;;;;;23.90;5.60;;;;;;;;;;20922804;28;20091;-64
2023/08/09 19:53:41;;;;;;;18.10;6.07;;;;;;;;;;20923509;28;20049;-65
2023/08/09 20:03:42;;;;;;;23.45;6.03;;;;;;;;;;20922762;28;20049;-64
2023/08/09 20:13:44;;;;;;;24.58;5.68;;;;;;;;;;20921872;28;20061;-64
2023/08/09 20:23:46;;;;;;;26.08;6.70;;;;;;;;;;20921291;28;20490;-64
2023/08/09 20:33:47;;;;;;;27.77;6.15;;;;;;;;;;20920446;28;20041;-63
2023/08/09 20:43:48;;;;;;;21.77;6.25;;;;;;;;;;20919686;28;20041;-62
2023/08/09 20:53:50;;;;;;;31.73;7.05;;;;;;;;;;20918695;28;20037;-63
2023/08/09 21:03:51;;;;;;;25.42;6.35;;;;;;;;;;20917968;28;20111;-63
2023/08/09 21:13:52;;;;;;;20.23;5.57;;;;;;;;;;20916747;28;20130;-64
2023/08/09 21:23:53;;;;;;;28.98;6.55;;;;;;;;;;20915132;28;20049;-63
2023/08/09 21:33:54;;;;;;;25.67;6.18;;;;;;;;;;20915982;28;20505;-63
2023/08/09 21:43:55;;;;;;;20.77;5.85;;;;;;;;;;20915416;28;20410;-64
2023/08/09 21:53:58;;;;;;;18.70;4.50;;;;;;;;;;20915611;28;20044;-63
2023/08/09 22:03:59;;;;;;;20.85;5.22;;;;;;;;;;20914142;28;20056;-64
2023/08/09 22:14:01;;;;;;;25.67;5.70;;;;;;;;;;20912141;28;20045;-64
2023/08/09 22:24:02;;;;;;;22.10;5.72;;;;;;;;;;20913401;28;20052;-63
2023/08/09 22:34:03;;;;;;;17.27;4.95;;;;;;;;;;20913220;28;20055;-64
2023/08/09 22:44:04;;;;;;;19.40;5.18;;;;;;;;;;20912765;28;20073;-63
2023/08/09 22:54:06;;;;;;;16.85;4.82;;;;;;;;;;20912642;28;20049;-64
2023/08/09 23:04:07;;;;;;;23.35;5.18;;;;;;;;;;20911944;28;20406;-63
2023/08/09 23:14:09;;;;;;;19.83;5.38;;;;;;;;;;20910639;28;20056;-67
2023/08/09 23:24:10;;;;;;;22.17;5.63;;;;;;;;;;20922356;28;20049;-64
2023/08/09 23:34:12;;;;;;;22.42;5.95;;;;;;;;;;20925605;28;20048;-63
2023/08/09 23:44:13;;;;;;;18.83;5.43;;;;;;;;;;20923398;28;20117;-62
2023/08/09 23:54:15;;;;;;;20.48;5.35;;;;;;;;;;20923900;28;20045;-63
